sensor_id;sensor_type;location;lat;lon;timestamp;noise_LAeq;noise_LA_min;noise_LA_max;noise_LA01;noise_LA95
17594;Laerm;8916;47.086;15.920;2023-02-11T00:01:45;49.61;48.55;50.61;;
17594;Laerm;8916;47.086;15.920;2023-02-11T00:04:16;49.62;48.55;50.77;;
17594;Laerm;8916;47.086;15.920;2023-02-11T00:06:45;49.62;48.48;50.73;;
17594;Laerm;8916;47.086;15.920;2023-02-11T00:09:14;49.62;48.55;50.71;;
17594;Laerm;8916;47.086;15.920;2023-02-11T00:11:43;49.62;48.42;50.64;;
17594;Laerm;8916;47.086;15.920;2023-02-11T00:14:12;49.63;48.55;50.64;;
17594;Laerm;8916;47.086;15.920;2023-02-11T00:16:41;49.63;48.55;50.77;;
17594;Laerm;8916;47.086;15.920;2023-02-11T00:19:10;49.63;48.57;50.73;;
17594;Laerm;8916;47.086;15.920;2023-02-11T00:21:41;49.64;48.37;50.63;;
17594;Laerm;8916;47.086;15.920;2023-02-11T00:24:10;49.64;48.52;50.56;;
17594;Laerm;8916;47.086;15.920;2023-02-11T00:26:39;49.64;48.57;50.68;;
17594;Laerm;8916;47.086;15.920;2023-02-11T00:29:09;49.63;48.32;50.73;;
17594;Laerm;8916;47.086;15.920;2023-02-11T00:31:40;49.64;48.54;50.68;;
17594;Laerm;8916;47.086;15.920;2023-02-11T00:34:09;49.64;48.54;50.80;;
17594;Laerm;8916;47.086;15.920;2023-02-11T00:36:40;49.64;48.54;50.70;;
17594;Laerm;8916;47.086;15.920;2023-02-11T00:39:09;49.64;48.52;50.70;;
17594;Laerm;8916;47.086;15.920;2023-02-11T00:41:38;49.64;48.49;50.73;;
17594;Laerm;8916;47.086;15.920;2023-02-11T00:44:08;49.64;48.43;50.76;;
17594;Laerm;8916;47.086;15.920;2023-02-11T00:46:37;49.64;48.51;50.72;;
17594;Laerm;8916;47.086;15.920;2023-02-11T00:49:09;49.63;48.55;50.68;;
17594;Laerm;8916;47.086;15.920;2023-02-11T00:51:38;49.63;48.57;50.79;;
17594;Laerm;8916;47.086;15.920;2023-02-11T00:54:09;49.64;48.64;50.65;;
17594;Laerm;8916;47.086;15.920;2023-02-11T00:56:38;49.63;48.46;50.63;;
17594;Laerm;8916;47.086;15.920;2023-02-11T00:59:08;49.64;48.60;50.62;;
17594;Laerm;8916;47.086;15.920;2023-02-11T01:01:37;49.63;48.40;50.68;;
17594;Laerm;8916;47.086;15.920;2023-02-11T01:04:08;49.63;48.60;50.67;;
17594;Laerm;8916;47.086;15.920;2023-02-11T01:06:37;49.65;48.45;50.83;;
17594;Laerm;8916;47.086;15.920;2023-02-11T01:09:07;49.65;48.55;50.68;;
17594;Laerm;8916;47.086;15.920;2023-02-11T01:11:36;49.65;48.32;50.63;;
17594;Laerm;8916;47.086;15.920;2023-02-11T01:14:05;49.65;48.45;50.64;;
17594;Laerm;8916;47.086;15.920;2023-02-11T01:16:35;49.66;48.69;50.86;;
17594;Laerm;8916;47.086;15.920;2023-02-11T01:19:04;49.65;48.46;50.70;;
17594;Laerm;8916;47.086;15.920;2023-02-11T01:21:33;49.65;48.63;50.76;;
17594;Laerm;8916;47.086;15.920;2023-02-11T01:24:02;49.65;48.51;50.71;;
17594;Laerm;8916;47.086;15.920;2023-02-11T01:26:33;49.64;48.55;50.75;;
17594;Laerm;8916;47.086;15.920;2023-02-11T01:29:03;49.65;48.66;50.81;;
17594;Laerm;8916;47.086;15.920;2023-02-11T01:31:32;49.65;48.43;50.76;;
17594;Laerm;8916;47.086;15.920;2023-02-11T01:34:01;49.65;48.58;50.68;;
17594;Laerm;8916;47.086;15.920;2023-02-11T01:36:30;49.66;48.60;50.78;;
17594;Laerm;8916;47.086;15.920;2023-02-11T01:39:00;49.65;48.57;50.64;;
17594;Laerm;8916;47.086;15.920;2023-02-11T01:41:29;49.65;48.58;50.85;;
17594;Laerm;8916;47.086;15.920;2023-02-11T01:44:28;49.66;48.57;50.74;;
17594;Laerm;8916;47.086;15.920;2023-02-11T01:46:57;49.66;48.46;50.90;;
17594;Laerm;8916;47.086;15.920;2023-02-11T01:49:29;49.65;48.49;50.88;;
17594;Laerm;8916;47.086;15.920;2023-02-11T01:52:02;49.65;48.43;50.67;;
17594;Laerm;8916;47.086;15.920;2023-02-11T01:54:37;49.65;48.45;50.68;;
17594;Laerm;8916;47.086;15.920;2023-02-11T01:57:30;49.65;48.49;50.80;;
17594;Laerm;8916;47.086;15.920;2023-02-11T02:00:10;49.65;48.66;50.71;;
17594;Laerm;8916;47.086;15.920;2023-02-11T02:02:48;49.64;48.39;50.63;;
17594;Laerm;8916;47.086;15.920;2023-02-11T02:05:23;49.66;48.43;50.64;;
17594;Laerm;8916;47.086;15.920;2023-02-11T02:08:04;49.66;48.55;50.78;;
17594;Laerm;8916;47.086;15.920;2023-02-11T02:10:41;49.66;48.60;50.79;;
17594;Laerm;8916;47.086;15.920;2023-02-11T02:13:11;49.66;48.46;50.70;;
17594;Laerm;8916;47.086;15.920;2023-02-11T02:15:47;49.65;48.37;50.78;;
17594;Laerm;8916;47.086;15.920;2023-02-11T02:18:33;49.65;48.36;50.66;;
17594;Laerm;8916;47.086;15.920;2023-02-11T02:21:50;49.65;48.70;50.76;;
17594;Laerm;8916;47.086;15.920;2023-02-11T02:24:58;49.64;48.46;50.85;;
17594;Laerm;8916;47.086;15.920;2023-02-11T02:27:48;49.65;48.49;50.76;;
17594;Laerm;8916;47.086;15.920;2023-02-11T02:30:58;49.65;48.48;50.76;;
17594;Laerm;8916;47.086;15.920;2023-02-11T02:33:41;49.66;48.51;50.59;;
17594;Laerm;8916;47.086;15.920;2023-02-11T02:36:18;49.66;48.42;50.81;;
17594;Laerm;8916;47.086;15.920;2023-02-11T02:38:52;49.67;48.61;50.73;;
17594;Laerm;8916;47.086;15.920;2023-02-11T02:41:27;49.67;48.48;50.77;;
17594;Laerm;8916;47.086;15.920;2023-02-11T02:43:57;49.67;48.49;50.74;;
17594;Laerm;8916;47.086;15.920;2023-02-11T02:46:29;49.66;48.57;50.68;;
17594;Laerm;8916;47.086;15.920;2023-02-11T02:49:00;49.66;48.51;50.70;;
17594;Laerm;8916;47.086;15.920;2023-02-11T02:51:47;49.66;48.52;50.62;;
17594;Laerm;8916;47.086;15.920;2023-02-11T02:54:46;49.66;48.54;50.72;;
17594;Laerm;8916;47.086;15.920;2023-02-11T02:57:31;49.67;48.08;51.08;;
17594;Laerm;8916;47.086;15.920;2023-02-11T03:00:17;49.69;48.49;50.64;;
17594;Laerm;8916;47.086;15.920;2023-02-11T03:03:04;49.68;48.64;50.64;;
17594;Laerm;8916;47.086;15.920;2023-02-11T03:05:47;49.67;48.51;50.60;;
17594;Laerm;8916;47.086;15.920;2023-02-11T03:08:26;49.68;48.67;50.92;;
17594;Laerm;8916;47.086;15.920;2023-02-11T03:10:57;49.68;48.57;50.70;;
17594;Laerm;8916;47.086;15.920;2023-02-11T03:13:31;49.69;48.49;50.70;;
17594;Laerm;8916;47.086;15.920;2023-02-11T03:16:11;49.69;48.63;50.63;;
17594;Laerm;8916;47.086;15.920;2023-02-11T03:18:45;49.67;48.64;50.92;;
17594;Laerm;8916;47.086;15.920;2023-02-11T03:21:18;49.69;48.49;50.73;;
17594;Laerm;8916;47.086;15.920;2023-02-11T03:23:51;49.69;48.48;50.89;;
17594;Laerm;8916;47.086;15.920;2023-02-11T03:26:25;49.67;48.58;50.62;;
17594;Laerm;8916;47.086;15.920;2023-02-11T03:29:01;49.69;48.70;50.79;;
17594;Laerm;8916;47.086;15.920;2023-02-11T03:31:39;49.69;48.63;50.92;;
17594;Laerm;8916;47.086;15.920;2023-02-11T03:34:13;49.69;48.66;51.03;;
17594;Laerm;8916;47.086;15.920;2023-02-11T03:36:51;49.70;48.58;50.82;;
17594;Laerm;8916;47.086;15.920;2023-02-11T03:39:26;49.70;48.46;50.72;;
17594;Laerm;8916;47.086;15.920;2023-02-11T03:41:58;49.69;48.58;50.78;;
17594;Laerm;8916;47.086;15.920;2023-02-11T03:44:33;49.70;48.73;50.72;;
17594;Laerm;8916;47.086;15.920;2023-02-11T03:47:04;49.69;48.49;50.97;;
17594;Laerm;8916;47.086;15.920;2023-02-11T03:49:37;49.70;48.67;50.63;;
17594;Laerm;8916;47.086;15.920;2023-02-11T03:52:09;49.69;48.58;50.95;;
17594;Laerm;8916;47.086;15.920;2023-02-11T03:54:40;49.69;48.53;50.69;;
17594;Laerm;8916;47.086;15.920;2023-02-11T03:57:11;49.69;48.55;50.80;;
17594;Laerm;8916;47.086;15.920;2023-02-11T03:59:52;49.69;48.55;50.83;;
17594;Laerm;8916;47.086;15.920;2023-02-11T04:02:24;49.69;48.48;50.70;;
17594;Laerm;8916;47.086;15.920;2023-02-11T04:04:55;49.70;48.48;50.94;;
17594;Laerm;8916;47.086;15.920;2023-02-11T04:07:26;49.69;48.60;50.68;;
17594;Laerm;8916;47.086;15.920;2023-02-11T04:09:55;49.70;48.67;50.73;;
17594;Laerm;8916;47.086;15.920;2023-02-11T04:12:24;49.70;48.52;50.76;;
17594;Laerm;8916;47.086;15.920;2023-02-11T04:14:53;49.70;48.54;50.68;;
17594;Laerm;8916;47.086;15.920;2023-02-11T04:17:23;49.71;48.43;50.77;;
17594;Laerm;8916;47.086;15.920;2023-02-11T04:19:52;49.71;48.63;51.10;;
17594;Laerm;8916;47.086;15.920;2023-02-11T04:22:21;49.71;48.63;50.64;;
17594;Laerm;8916;47.086;15.920;2023-02-11T04:24:51;49.70;48.60;50.83;;
17594;Laerm;8916;47.086;15.920;2023-02-11T04:27:21;49.70;48.54;50.77;;
17594;Laerm;8916;47.086;15.920;2023-02-11T04:29:50;49.70;48.76;50.75;;
17594;Laerm;8916;47.086;15.920;2023-02-11T04:32:19;49.70;48.73;51.03;;
17594;Laerm;8916;47.086;15.920;2023-02-11T04:34:48;49.70;48.46;50.82;;
17594;Laerm;8916;47.086;15.920;2023-02-11T04:37:17;49.69;48.52;50.77;;
17594;Laerm;8916;47.086;15.920;2023-02-11T04:39:46;49.70;48.76;50.77;;
17594;Laerm;8916;47.086;15.920;2023-02-11T04:42:17;49.70;48.64;50.76;;
17594;Laerm;8916;47.086;15.920;2023-02-11T04:44:46;49.69;48.66;50.73;;
17594;Laerm;8916;47.086;15.920;2023-02-11T04:47:15;49.69;48.55;50.87;;
17594;Laerm;8916;47.086;15.920;2023-02-11T04:49:44;49.69;48.46;50.83;;
17594;Laerm;8916;47.086;15.920;2023-02-11T04:52:13;49.69;48.63;50.76;;
17594;Laerm;8916;47.086;15.920;2023-02-11T04:54:43;49.70;48.58;50.68;;
17594;Laerm;8916;47.086;15.920;2023-02-11T04:57:12;49.69;48.52;50.75;;
17594;Laerm;8916;47.086;15.920;2023-02-11T04:59:42;49.69;48.43;50.70;;
17594;Laerm;8916;47.086;15.920;2023-02-11T05:02:11;49.69;48.61;50.65;;
17594;Laerm;8916;47.086;15.920;2023-02-11T05:04:40;49.69;48.61;51.03;;
17594;Laerm;8916;47.086;15.920;2023-02-11T05:07:10;49.69;48.69;50.66;;
17594;Laerm;8916;47.086;15.920;2023-02-11T05:09:39;49.69;48.58;50.92;;
17594;Laerm;8916;47.086;15.920;2023-02-11T05:12:08;49.69;48.63;50.71;;
17594;Laerm;8916;47.086;15.920;2023-02-11T05:14:38;49.70;48.49;50.74;;
17594;Laerm;8916;47.086;15.920;2023-02-11T05:17:08;49.70;48.61;50.77;;
17594;Laerm;8916;47.086;15.920;2023-02-11T05:19:37;49.69;48.67;50.69;;
17594;Laerm;8916;47.086;15.920;2023-02-11T05:22:07;49.70;48.67;50.78;;
17594;Laerm;8916;47.086;15.920;2023-02-11T05:24:37;49.69;48.57;50.68;;
17594;Laerm;8916;47.086;15.920;2023-02-11T05:27:06;49.70;48.57;50.73;;
17594;Laerm;8916;47.086;15.920;2023-02-11T05:29:35;49.70;48.45;50.92;;
17594;Laerm;8916;47.086;15.920;2023-02-11T05:32:05;49.70;48.57;50.68;;
17594;Laerm;8916;47.086;15.920;2023-02-11T05:34:37;49.70;48.58;50.84;;
17594;Laerm;8916;47.086;15.920;2023-02-11T05:37:06;49.69;48.45;50.92;;
17594;Laerm;8916;47.086;15.920;2023-02-11T05:39:35;49.70;48.13;50.85;;
17594;Laerm;8916;47.086;15.920;2023-02-11T05:42:04;49.70;48.52;50.98;;
17594;Laerm;8916;47.086;15.920;2023-02-11T05:44:33;49.70;48.69;50.92;;
17594;Laerm;8916;47.086;15.920;2023-02-11T05:47:03;49.69;48.43;50.74;;
17594;Laerm;8916;47.086;15.920;2023-02-11T05:49:32;49.69;48.55;50.99;;
17594;Laerm;8916;47.086;15.920;2023-02-11T05:52:03;49.69;48.58;50.80;;
17594;Laerm;8916;47.086;15.920;2023-02-11T05:54:32;49.69;48.40;50.78;;
17594;Laerm;8916;47.086;15.920;2023-02-11T05:57:01;49.70;48.64;50.77;;
17594;Laerm;8916;47.086;15.920;2023-02-11T05:59:30;49.70;48.67;50.88;;
17594;Laerm;8916;47.086;15.920;2023-02-11T06:01:59;49.68;48.67;50.73;;
17594;Laerm;8916;47.086;15.920;2023-02-11T06:04:29;49.69;48.42;50.71;;
17594;Laerm;8916;47.086;15.920;2023-02-11T06:06:58;49.69;48.73;51.00;;
17594;Laerm;8916;47.086;15.920;2023-02-11T06:09:28;49.70;48.48;50.81;;
17594;Laerm;8916;47.086;15.920;2023-02-11T06:11:58;49.70;48.51;50.66;;
17594;Laerm;8916;47.086;15.920;2023-02-11T06:14:28;49.69;48.61;50.81;;
17594;Laerm;8916;47.086;15.920;2023-02-11T06:16:57;49.68;48.67;50.86;;
17594;Laerm;8916;47.086;15.920;2023-02-11T06:19:26;49.69;48.43;50.83;;
17594;Laerm;8916;47.086;15.920;2023-02-11T06:21:56;49.69;48.51;50.84;;
17594;Laerm;8916;47.086;15.920;2023-02-11T06:24:25;49.68;48.60;50.69;;
17594;Laerm;8916;47.086;15.920;2023-02-11T06:27:16;49.68;48.49;50.71;;
17594;Laerm;8916;47.086;15.920;2023-02-11T06:29:45;49.68;48.48;50.78;;
17594;Laerm;8916;47.086;15.920;2023-02-11T06:32:14;49.68;48.57;50.90;;
17594;Laerm;8916;47.086;15.920;2023-02-11T06:35:04;49.67;48.52;50.68;;
17594;Laerm;8916;47.086;15.920;2023-02-11T06:37:37;49.67;48.45;50.79;;
17594;Laerm;8916;47.086;15.920;2023-02-11T06:40:07;49.67;48.57;50.77;;
17594;Laerm;8916;47.086;15.920;2023-02-11T06:42:38;49.66;48.64;50.60;;
17594;Laerm;8916;47.086;15.920;2023-02-11T06:45:08;49.66;48.60;51.01;;
17594;Laerm;8916;47.086;15.920;2023-02-11T06:47:40;49.66;48.64;50.72;;
17594;Laerm;8916;47.086;15.920;2023-02-11T06:50:12;49.64;48.60;50.87;;
17594;Laerm;8916;47.086;15.920;2023-02-11T06:52:41;49.64;48.55;50.68;;
17594;Laerm;8916;47.086;15.920;2023-02-11T06:55:11;49.63;48.55;50.69;;
17594;Laerm;8916;47.086;15.920;2023-02-11T06:57:41;49.63;48.51;50.86;;
17594;Laerm;8916;47.086;15.920;2023-02-11T07:00:12;49.61;48.58;50.63;;
17594;Laerm;8916;47.086;15.920;2023-02-11T07:02:42;49.58;48.52;50.79;;
17594;Laerm;8916;47.086;15.920;2023-02-11T07:05:11;49.54;48.37;50.70;;
17594;Laerm;8916;47.086;15.920;2023-02-11T07:07:40;49.51;48.42;50.71;;
17594;Laerm;8916;47.086;15.920;2023-02-11T07:10:09;49.50;48.26;50.47;;
17594;Laerm;8916;47.086;15.920;2023-02-11T07:12:38;49.51;48.54;50.57;;
17594;Laerm;8916;47.086;15.920;2023-02-11T07:15:09;49.51;48.42;50.56;;
17594;Laerm;8916;47.086;15.920;2023-02-11T07:17:38;49.51;48.32;50.47;;
17594;Laerm;8916;47.086;15.920;2023-02-11T07:20:08;49.52;48.36;50.62;;
17594;Laerm;8916;47.086;15.920;2023-02-11T07:22:39;49.54;48.52;50.53;;
17594;Laerm;8916;47.086;15.920;2023-02-11T07:25:08;49.56;48.36;50.81;;
17594;Laerm;8916;47.086;15.920;2023-02-11T07:27:37;49.57;48.36;50.66;;
17594;Laerm;8916;47.086;15.920;2023-02-11T07:30:10;49.56;48.46;50.80;;
17594;Laerm;8916;47.086;15.920;2023-02-11T07:32:39;49.57;48.45;50.87;;
17594;Laerm;8916;47.086;15.920;2023-02-11T07:35:08;49.56;48.42;50.86;;
17594;Laerm;8916;47.086;15.920;2023-02-11T07:37:38;49.56;48.42;50.68;;
17594;Laerm;8916;47.086;15.920;2023-02-11T07:40:09;49.56;48.48;50.68;;
17594;Laerm;8916;47.086;15.920;2023-02-11T07:42:38;49.55;48.52;50.74;;
17594;Laerm;8916;47.086;15.920;2023-02-11T07:45:09;49.54;48.32;50.58;;
17594;Laerm;8916;47.086;15.920;2023-02-11T07:47:39;49.54;48.43;50.71;;
17594;Laerm;8916;47.086;15.920;2023-02-11T07:50:09;49.52;48.45;50.61;;
17594;Laerm;8916;47.086;15.920;2023-02-11T07:52:38;49.47;48.28;50.69;;
17594;Laerm;8916;47.086;15.920;2023-02-11T07:55:07;49.44;48.28;50.49;;
17594;Laerm;8916;47.086;15.920;2023-02-11T07:57:37;49.40;48.28;50.51;;
17594;Laerm;8916;47.086;15.920;2023-02-11T08:00:07;49.39;48.29;50.41;;
17594;Laerm;8916;47.086;15.920;2023-02-11T08:02:40;49.42;48.40;50.89;;
17594;Laerm;8916;47.086;15.920;2023-02-11T08:05:09;49.45;48.34;50.67;;
17594;Laerm;8916;47.086;15.920;2023-02-11T08:07:38;49.48;48.26;50.92;;
17594;Laerm;8916;47.086;15.920;2023-02-11T08:10:08;49.48;48.40;50.56;;
17594;Laerm;8916;47.086;15.920;2023-02-11T08:12:37;49.50;48.40;50.59;;
17594;Laerm;8916;47.086;15.920;2023-02-11T08:15:07;49.51;48.40;50.61;;
17594;Laerm;8916;47.086;15.920;2023-02-11T08:17:37;49.50;48.40;50.68;;
17594;Laerm;8916;47.086;15.920;2023-02-11T08:20:09;49.50;48.43;50.85;;
17594;Laerm;8916;47.086;15.920;2023-02-11T08:22:38;49.51;48.49;50.65;;
17594;Laerm;8916;47.086;15.920;2023-02-11T08:25:08;49.49;48.49;50.49;;
17594;Laerm;8916;47.086;15.920;2023-02-11T08:27:37;49.48;48.34;50.58;;
17594;Laerm;8916;47.086;15.920;2023-02-11T08:30:07;49.43;48.29;50.51;;
17594;Laerm;8916;47.086;15.920;2023-02-11T08:32:37;49.39;48.36;50.45;;
17594;Laerm;8916;47.086;15.920;2023-02-11T08:35:08;49.35;48.34;50.42;;
17594;Laerm;8916;47.086;15.920;2023-02-11T08:37:39;49.34;48.18;50.39;;
17594;Laerm;8916;47.086;15.920;2023-02-11T08:40:09;49.33;48.18;50.47;;
17594;Laerm;8916;47.086;15.920;2023-02-11T08:42:38;49.31;48.12;50.38;;
17594;Laerm;8916;47.086;15.920;2023-02-11T08:45:08;49.30;48.12;50.41;;
17594;Laerm;8916;47.086;15.920;2023-02-11T08:47:37;49.28;48.18;50.45;;
17594;Laerm;8916;47.086;15.920;2023-02-11T08:50:08;49.28;48.29;50.45;;
17594;Laerm;8916;47.086;15.920;2023-02-11T08:52:38;49.27;48.12;50.68;;
17594;Laerm;8916;47.086;15.920;2023-02-11T08:55:07;49.28;48.20;50.32;;
17594;Laerm;8916;47.086;15.920;2023-02-11T08:57:37;49.30;48.00;50.36;;
17594;Laerm;8916;47.086;15.920;2023-02-11T09:00:08;49.29;48.23;50.58;;
17594;Laerm;8916;47.086;15.920;2023-02-11T09:02:38;49.27;48.15;50.35;;
17594;Laerm;8916;47.086;15.920;2023-02-11T09:05:09;49.26;48.21;50.32;;
17594;Laerm;8916;47.086;15.920;2023-02-11T09:07:39;49.27;47.96;50.36;;
17594;Laerm;8916;47.086;15.920;2023-02-11T09:10:08;49.30;48.21;50.40;;
17594;Laerm;8916;47.086;15.920;2023-02-11T09:12:37;49.32;48.20;50.30;;
17594;Laerm;8916;47.086;15.920;2023-02-11T09:15:08;49.31;48.29;50.34;;
17594;Laerm;8916;47.086;15.920;2023-02-11T09:17:38;49.32;48.28;50.46;;
17594;Laerm;8916;47.086;15.920;2023-02-11T09:20:09;49.30;48.13;50.37;;
17594;Laerm;8916;47.086;15.920;2023-02-11T09:22:38;49.29;48.12;50.34;;
17594;Laerm;8916;47.086;15.920;2023-02-11T09:25:08;49.29;48.08;50.47;;
17594;Laerm;8916;47.086;15.920;2023-02-11T09:27:38;49.31;48.23;50.35;;
17594;Laerm;8916;47.086;15.920;2023-02-11T09:30:09;49.32;48.29;50.62;;
17594;Laerm;8916;47.086;15.920;2023-02-11T09:32:38;49.31;48.10;50.34;;
17594;Laerm;8916;47.086;15.920;2023-02-11T09:35:09;49.26;48.20;50.53;;
17594;Laerm;8916;47.086;15.920;2023-02-11T09:37:38;49.21;48.08;50.30;;
17594;Laerm;8916;47.086;15.920;2023-02-11T09:40:09;49.22;48.16;50.32;;
17594;Laerm;8916;47.086;15.920;2023-02-11T09:42:44;49.22;47.96;50.49;;
17594;Laerm;8916;47.086;15.920;2023-02-11T09:45:17;49.16;48.15;50.30;;
17594;Laerm;8916;47.086;15.920;2023-02-11T09:47:53;49.10;48.07;50.18;;
17594;Laerm;8916;47.086;15.920;2023-02-11T09:50:31;49.16;48.05;50.64;;
17594;Laerm;8916;47.086;15.920;2023-02-11T09:53:05;49.20;48.12;50.52;;
17594;Laerm;8916;47.086;15.920;2023-02-11T09:55:40;49.24;48.13;50.26;;
17594;Laerm;8916;47.086;15.920;2023-02-11T09:58:13;49.26;48.16;50.28;;
17594;Laerm;8916;47.086;15.920;2023-02-11T10:00:48;49.27;48.08;50.48;;
17594;Laerm;8916;47.086;15.920;2023-02-11T10:03:43;49.28;48.21;50.31;;
17594;Laerm;8916;47.086;15.920;2023-02-11T10:06:40;49.28;48.13;50.51;;
17594;Laerm;8916;47.086;15.920;2023-02-11T10:09:25;49.26;48.18;50.46;;
17594;Laerm;8916;47.086;15.920;2023-02-11T10:12:12;49.25;48.10;50.34;;
17594;Laerm;8916;47.086;15.920;2023-02-11T10:14:52;49.25;48.10;50.60;;
17594;Laerm;8916;47.086;15.920;2023-02-11T10:17:36;49.24;48.20;50.45;;
17594;Laerm;8916;47.086;15.920;2023-02-11T10:20:29;49.23;48.07;50.33;;
17594;Laerm;8916;47.086;15.920;2023-02-11T10:23:09;49.20;48.08;50.55;;
17594;Laerm;8916;47.086;15.920;2023-02-11T10:25:44;49.21;47.91;50.32;;
17594;Laerm;8916;47.086;15.920;2023-02-11T10:28:17;49.20;48.12;50.27;;
17594;Laerm;8916;47.086;15.920;2023-02-11T10:30:55;49.20;48.10;50.24;;
17594;Laerm;8916;47.086;15.920;2023-02-11T10:33:30;49.20;48.16;50.35;;
17594;Laerm;8916;47.086;15.920;2023-02-11T10:36:05;49.21;48.10;50.30;;
17594;Laerm;8916;47.086;15.920;2023-02-11T10:38:36;49.20;48.03;50.21;;
17594;Laerm;8916;47.086;15.920;2023-02-11T10:41:09;49.20;48.05;50.38;;
17594;Laerm;8916;47.086;15.920;2023-02-11T10:43:43;49.19;48.05;50.66;;
17594;Laerm;8916;47.086;15.920;2023-02-11T10:46:21;49.20;48.08;50.56;;
17594;Laerm;8916;47.086;15.920;2023-02-11T10:48:54;49.18;47.93;50.33;;
17594;Laerm;8916;47.086;15.920;2023-02-11T10:51:25;49.18;48.10;50.34;;
17594;Laerm;8916;47.086;15.920;2023-02-11T10:54:17;49.17;48.05;50.39;;
17594;Laerm;8916;47.086;15.920;2023-02-11T10:56:50;49.17;48.07;50.27;;
17594;Laerm;8916;47.086;15.920;2023-02-11T10:59:29;49.17;48.05;50.23;;
17594;Laerm;8916;47.086;15.920;2023-02-11T11:02:01;49.16;48.02;50.30;;
17594;Laerm;8916;47.086;15.920;2023-02-11T11:04:42;49.15;47.98;50.15;;
17594;Laerm;8916;47.086;15.920;2023-02-11T11:07:18;49.15;48.07;50.25;;
17594;Laerm;8916;47.086;15.920;2023-02-11T11:09:53;49.15;48.15;50.24;;
17594;Laerm;8916;47.086;15.920;2023-02-11T11:12:27;49.14;48.08;50.54;;
17594;Laerm;8916;47.086;15.920;2023-02-11T11:14:59;49.13;47.90;50.33;;
17594;Laerm;8916;47.086;15.920;2023-02-11T11:17:29;49.14;48.03;50.32;;
17594;Laerm;8916;47.086;15.920;2023-02-11T11:20:29;49.13;48.02;50.21;;
17594;Laerm;8916;47.086;15.920;2023-02-11T11:23:18;49.15;48.08;50.20;;
17594;Laerm;8916;47.086;15.920;2023-02-11T11:26:02;49.16;47.88;50.41;;
17594;Laerm;8916;47.086;15.920;2023-02-11T11:28:37;49.16;48.12;50.32;;
17594;Laerm;8916;47.086;15.920;2023-02-11T11:31:13;49.16;48.16;50.38;;
17594;Laerm;8916;47.086;15.920;2023-02-11T11:33:47;49.16;47.98;50.20;;
17594;Laerm;8916;47.086;15.920;2023-02-11T11:36:21;49.16;48.07;50.44;;
17594;Laerm;8916;47.086;15.920;2023-02-11T11:38:56;49.15;47.95;50.20;;
17594;Laerm;8916;47.086;15.920;2023-02-11T11:41:29;49.15;48.10;50.45;;
17594;Laerm;8916;47.086;15.920;2023-02-11T11:44:13;49.13;48.15;50.34;;
17594;Laerm;8916;47.086;15.920;2023-02-11T11:46:45;49.13;48.16;50.31;;
17594;Laerm;8916;47.086;15.920;2023-02-11T11:49:24;49.11;48.03;50.29;;
17594;Laerm;8916;47.086;15.920;2023-02-11T11:52:10;49.09;47.83;50.28;;
17594;Laerm;8916;47.086;15.920;2023-02-11T11:54:50;49.08;48.02;50.15;;
17594;Laerm;8916;47.086;15.920;2023-02-11T11:57:26;49.08;48.00;50.35;;
17594;Laerm;8916;47.086;15.920;2023-02-11T11:59:58;49.07;47.93;50.21;;
17594;Laerm;8916;47.086;15.920;2023-02-11T12:03:05;49.08;47.98;50.14;;
17594;Laerm;8916;47.086;15.920;2023-02-11T12:05:44;49.10;48.00;50.24;;
17594;Laerm;8916;47.086;15.920;2023-02-11T12:08:24;49.12;48.05;50.21;;
17594;Laerm;8916;47.086;15.920;2023-02-11T12:11:07;49.11;47.93;50.50;;
17594;Laerm;8916;47.086;15.920;2023-02-11T12:13:59;49.10;47.83;50.40;;
17594;Laerm;8916;47.086;15.920;2023-02-11T12:16:48;49.11;48.07;50.29;;
17594;Laerm;8916;47.086;15.920;2023-02-11T12:19:58;49.09;48.05;50.23;;
17594;Laerm;8916;47.086;15.920;2023-02-11T12:22:41;49.10;48.00;50.29;;
17594;Laerm;8916;47.086;15.920;2023-02-11T12:25:27;49.09;48.05;50.31;;
17594;Laerm;8916;47.086;15.920;2023-02-11T12:28:17;49.07;47.98;50.32;;
17594;Laerm;8916;47.086;15.920;2023-02-11T12:31:07;49.07;48.02;50.52;;
17594;Laerm;8916;47.086;15.920;2023-02-11T12:34:11;49.10;47.86;50.47;;
17594;Laerm;8916;47.086;15.920;2023-02-11T12:37:00;49.08;47.95;50.14;;
17594;Laerm;8916;47.086;15.920;2023-02-11T12:39:40;49.06;47.77;50.13;;
17594;Laerm;8916;47.086;15.920;2023-02-11T12:42:28;49.07;47.70;50.26;;
17594;Laerm;8916;47.086;15.920;2023-02-11T12:45:29;49.07;47.95;50.15;;
17594;Laerm;8916;47.086;15.920;2023-02-11T12:48:15;49.05;47.91;50.09;;
17594;Laerm;8916;47.086;15.920;2023-02-11T12:50:56;49.01;47.91;50.13;;
17594;Laerm;8916;47.086;15.920;2023-02-11T12:56:36;48.97;47.91;50.24;;
17594;Laerm;8916;47.086;15.920;2023-02-11T12:59:16;48.97;47.83;50.22;;
17594;Laerm;8916;47.086;15.920;2023-02-11T13:01:49;48.99;47.83;50.12;;
17594;Laerm;8916;47.086;15.920;2023-02-11T13:04:34;49.00;47.91;50.08;;
17594;Laerm;8916;47.086;15.920;2023-02-11T13:07:14;49.02;47.96;50.26;;
17594;Laerm;8916;47.086;15.920;2023-02-11T13:09:51;49.03;48.02;50.18;;
17594;Laerm;8916;47.086;15.920;2023-02-11T13:12:23;49.02;47.76;49.92;;
17594;Laerm;8916;47.086;15.920;2023-02-11T13:15:14;49.03;47.95;50.17;;
17594;Laerm;8916;47.086;15.920;2023-02-11T13:17:53;49.04;47.90;50.10;;
17594;Laerm;8916;47.086;15.920;2023-02-11T13:20:43;49.05;47.77;50.36;;
17594;Laerm;8916;47.086;15.920;2023-02-11T13:23:22;49.07;47.93;50.18;;
17594;Laerm;8916;47.086;15.920;2023-02-11T13:26:06;49.08;48.02;50.35;;
17594;Laerm;8916;47.086;15.920;2023-02-11T13:28:45;49.07;47.88;50.32;;
17594;Laerm;8916;47.086;15.920;2023-02-11T13:31:17;49.07;48.03;50.22;;
17594;Laerm;8916;47.086;15.920;2023-02-11T13:33:47;49.08;48.08;50.38;;
17594;Laerm;8916;47.086;15.920;2023-02-11T13:36:21;49.08;48.05;50.44;;
17594;Laerm;8916;47.086;15.920;2023-02-11T13:39:00;49.08;48.00;50.83;;
17594;Laerm;8916;47.086;15.920;2023-02-11T13:41:37;49.07;48.03;50.19;;
17594;Laerm;8916;47.086;15.920;2023-02-11T13:44:25;49.07;47.76;50.22;;
17594;Laerm;8916;47.086;15.920;2023-02-11T13:46:58;49.07;48.03;50.26;;
17594;Laerm;8916;47.086;15.920;2023-02-11T13:49:34;49.08;48.07;50.17;;
17594;Laerm;8916;47.086;15.920;2023-02-11T13:52:22;49.08;48.03;50.23;;
17594;Laerm;8916;47.086;15.920;2023-02-11T13:54:57;49.08;47.90;50.17;;
17594;Laerm;8916;47.086;15.920;2023-02-11T13:57:34;49.06;47.63;50.21;;
17594;Laerm;8916;47.086;15.920;2023-02-11T14:00:47;49.05;47.98;50.24;;
17594;Laerm;8916;47.086;15.920;2023-02-11T14:03:30;49.05;47.99;50.43;;
17594;Laerm;8916;47.086;15.920;2023-02-11T14:06:24;49.06;47.96;50.31;;
17594;Laerm;8916;47.086;15.920;2023-02-11T14:09:38;49.06;48.10;50.36;;
17594;Laerm;8916;47.086;15.920;2023-02-11T14:12:35;49.08;48.10;50.18;;
17594;Laerm;8916;47.086;15.920;2023-02-11T14:15:39;49.08;47.90;50.23;;
17594;Laerm;8916;47.086;15.920;2023-02-11T14:21:33;49.11;48.00;50.42;;
17594;Laerm;8916;47.086;15.920;2023-02-11T14:24:50;49.11;48.08;50.17;;
17594;Laerm;8916;47.086;15.920;2023-02-11T14:27:33;49.11;47.86;50.22;;
17594;Laerm;8916;47.086;15.920;2023-02-11T14:30:47;49.12;48.12;50.29;;
17594;Laerm;8916;47.086;15.920;2023-02-11T14:33:59;49.13;47.79;50.33;;
17594;Laerm;8916;47.086;15.920;2023-02-11T14:36:54;49.12;48.02;50.43;;